createdAt,value
2023-04-04T00:02:46.385Z,4.50
2023-04-04T00:07:50.781Z,4.40
2023-04-04T00:12:53.807Z,4.10
2023-04-04T00:17:57.314Z,4.10
2023-04-04T00:23:01.608Z,4.30
2023-04-04T00:28:04.636Z,4.20
2023-04-04T00:33:08.121Z,4.30
2023-04-04T00:38:12.821Z,3.70
2023-04-04T00:43:16.993Z,3.80
2023-04-04T00:48:21.308Z,3.70
2023-04-04T00:53:26.008Z,3.30
2023-04-04T00:58:29.016Z,3.10
2023-04-04T01:03:32.149Z,3.00
2023-04-04T01:08:38.857Z,2.90
2023-04-04T01:13:43.359Z,2.60
2023-04-04T01:18:50.951Z,2.70
2023-04-04T01:24:01.274Z,2.90
2023-04-04T01:29:31.022Z,3.20
2023-04-04T01:34:45.576Z,3.40
2023-04-04T01:39:54.413Z,3.50
2023-04-04T01:44:59.040Z,3.70
2023-04-04T01:50:10.428Z,3.60
2023-04-04T01:55:13.490Z,3.50
2023-04-04T02:00:18.630Z,3.60
2023-04-04T02:05:21.475Z,3.30
2023-04-04T02:10:24.342Z,3.40
2023-04-04T02:15:29.119Z,3.40
2023-04-04T02:20:32.616Z,3.40
2023-04-04T02:25:35.556Z,3.30
2023-04-04T02:30:39.895Z,3.10
2023-04-04T02:35:42.997Z,3.10
2023-04-04T02:40:46.842Z,3.10
2023-04-04T02:45:51.712Z,3.10
2023-04-04T02:50:58.680Z,3.10
2023-04-04T02:56:03.688Z,3.20
2023-04-04T03:01:08.576Z,3.10
2023-04-04T03:06:14.868Z,3.00
2023-04-04T03:11:21.089Z,3.00
2023-04-04T03:16:27.125Z,3.00
2023-04-04T03:21:30.243Z,2.80
2023-04-04T03:26:34.852Z,2.70
2023-04-04T03:31:41.740Z,2.70
2023-04-04T03:36:46.642Z,2.80
2023-04-04T03:41:49.498Z,3.10
2023-04-04T03:46:54.312Z,2.60
2023-04-04T03:51:58.985Z,2.40
2023-04-04T03:57:02.088Z,2.60
2023-04-04T04:02:06.873Z,2.70
2023-04-04T04:07:09.867Z,2.60
2023-04-04T04:12:12.731Z,2.40
2023-04-04T04:17:19.714Z,2.50
2023-04-04T04:22:24.190Z,1.70
2023-04-04T04:27:27.332Z,1.40
2023-04-04T04:32:32.536Z,1.70
2023-04-04T04:37:35.628Z,2.00
2023-04-04T04:42:45.945Z,2.10
2023-04-04T04:47:53.207Z,2.30
2023-04-04T04:52:57.389Z,2.30
2023-04-04T04:58:01.225Z,2.20
2023-04-04T05:03:07.626Z,2.10
2023-04-04T05:08:15.728Z,2.10
2023-04-04T05:13:29.195Z,2.20
2023-04-04T05:18:33.711Z,2.20
2023-04-04T05:23:36.793Z,2.40
2023-04-04T05:28:40.735Z,2.30
2023-04-04T05:33:45.590Z,2.20
2023-04-04T05:39:05.827Z,2.20
2023-04-04T05:44:12.553Z,2.10
2023-04-04T05:49:16.973Z,2.10
2023-04-04T05:54:29.729Z,1.90
2023-04-04T05:59:35.006Z,2.00
2023-04-04T06:04:41.915Z,2.00
2023-04-04T06:09:46.988Z,2.20
2023-04-04T06:14:49.937Z,2.40
2023-04-04T06:19:57.886Z,2.40
2023-04-04T06:25:00.859Z,2.50
2023-04-04T06:30:06.276Z,2.40
2023-04-04T06:35:11.173Z,2.70
2023-04-04T06:40:19.416Z,2.70
2023-04-04T06:45:23.598Z,2.60
2023-04-04T06:50:30.896Z,2.80
2023-04-04T06:55:34.585Z,2.90
2023-04-04T07:00:37.975Z,3.00
2023-04-04T07:05:42.605Z,3.20
2023-04-04T07:10:45.819Z,3.30
2023-04-04T07:15:50.121Z,3.30
2023-04-04T07:20:54.907Z,3.30
2023-04-04T07:25:57.852Z,3.30
2023-04-04T07:31:01.791Z,3.60
2023-04-04T07:36:06.466Z,3.90
2023-04-04T07:41:09.805Z,4.00
2023-04-04T07:46:12.759Z,4.10
2023-04-04T07:51:17.312Z,4.60
2023-04-04T07:56:21.650Z,4.70
2023-04-04T08:01:24.482Z,4.90
2023-04-04T08:06:28.676Z,4.60
2023-04-04T08:11:31.545Z,5.10
2023-04-04T08:16:34.652Z,5.40
2023-04-04T08:21:38.836Z,5.80
2023-04-04T08:26:43.579Z,6.30
2023-04-04T08:31:48.321Z,6.40
2023-04-04T08:36:52.954Z,6.90
2023-04-04T08:42:03.216Z,6.40
2023-04-04T08:47:09.114Z,6.50
2023-04-04T08:52:15.940Z,7.00
2023-04-04T08:57:27.365Z,7.10
2023-04-04T09:02:35.190Z,7.00
2023-04-04T09:07:40.026Z,7.10
2023-04-04T09:12:45.131Z,7.30
2023-04-04T09:17:49.019Z,7.30
2023-04-04T09:22:53.350Z,7.30
2023-04-04T09:27:57.923Z,7.10
2023-04-04T09:33:06.162Z,7.70
2023-04-04T09:38:10.524Z,8.00
2023-04-04T09:43:13.813Z,7.90
2023-04-04T09:48:27.202Z,7.80
2023-04-04T09:53:31.652Z,7.60
2023-04-04T09:58:36.193Z,8.00
2023-04-04T10:03:39.927Z,8.40
2023-04-04T10:08:45.760Z,8.60
2023-04-04T10:13:53.247Z,8.80
2023-04-04T10:18:57.148Z,8.80
2023-04-04T10:24:08.867Z,9.10
2023-04-04T10:29:11.833Z,8.50
2023-04-04T10:34:26.188Z,8.80
2023-04-04T10:39:34.262Z,9.10
2023-04-04T10:44:39.995Z,9.40
2023-04-04T10:49:45.714Z,9.40
2023-04-04T10:54:52.267Z,9.70
2023-04-04T10:59:59.132Z,9.50
2023-04-04T11:05:12.324Z,9.20
2023-04-04T11:10:21.942Z,9.10
2023-04-04T11:15:26.242Z,9.00
2023-04-04T11:20:34.586Z,9.20
2023-04-04T11:25:42.809Z,9.50
2023-04-04T11:30:48.838Z,8.80
2023-04-04T11:35:51.884Z,8.70
2023-04-04T11:40:56.714Z,8.80
2023-04-04T11:46:08.808Z,8.50
2023-04-04T11:51:12.766Z,8.80
2023-04-04T11:56:18.169Z,8.30
2023-04-04T12:01:21.690Z,8.50
2023-04-04T12:06:25.401Z,8.30
2023-04-04T12:11:32.108Z,8.70
2023-04-04T12:16:37.177Z,8.80
2023-04-04T12:21:40.553Z,8.60
2023-04-04T12:26:46.987Z,8.60
2023-04-04T12:31:51.203Z,8.90
2023-04-04T12:36:54.255Z,8.70
2023-04-04T12:41:59.930Z,9.00
2023-04-04T12:47:05.144Z,9.10
2023-04-04T12:52:17.052Z,8.80
2023-04-04T12:57:23.293Z,8.60
2023-04-04T13:02:29.460Z,8.70
2023-04-04T13:07:34.879Z,8.80
2023-04-04T13:12:59.572Z,8.80
2023-04-04T13:18:15.920Z,8.90
2023-04-04T13:23:19.256Z,9.00
2023-04-04T13:28:23.480Z,9.00
2023-04-04T13:33:26.357Z,9.00
2023-04-04T13:38:30.294Z,9.20
2023-04-04T13:43:34.553Z,9.40
2023-04-04T13:48:37.404Z,9.30
2023-04-04T13:53:41.445Z,9.40
2023-04-04T13:58:46.327Z,9.30
2023-04-04T14:03:49.307Z,9.40
2023-04-04T14:08:52.169Z,9.50
2023-04-04T14:13:56.352Z,9.50
2023-04-04T14:18:59.192Z,9.30
2023-04-04T14:24:02.033Z,9.30
2023-04-04T14:29:06.909Z,9.30
2023-04-04T14:34:10.354Z,9.70
2023-04-04T14:39:14.022Z,9.60
2023-04-04T14:44:18.437Z,9.40
2023-04-04T14:49:31.574Z,9.40
2023-04-04T14:54:34.508Z,9.40
2023-04-04T14:59:39.700Z,9.40
2023-04-04T15:04:42.860Z,9.60
2023-04-04T15:09:46.047Z,9.60
2023-04-04T15:14:50.346Z,9.50
2023-04-04T15:19:53.256Z,9.40
2023-04-04T15:24:56.479Z,9.40
2023-04-04T15:30:00.806Z,9.30
2023-04-04T15:35:04.524Z,9.20
2023-04-04T15:40:08.449Z,9.40
2023-04-04T15:45:14.066Z,9.50
2023-04-04T15:50:16.914Z,9.60
2023-04-04T15:55:21.654Z,9.40
2023-04-04T16:00:28.894Z,9.40
2023-04-04T16:05:34.846Z,9.40
2023-04-04T16:10:37.819Z,9.30
2023-04-04T16:15:42.435Z,9.60
2023-04-04T16:20:45.335Z,9.70
2023-04-04T16:25:48.194Z,9.50
2023-04-04T16:30:52.709Z,9.40
2023-04-04T16:35:56.467Z,9.50
2023-04-04T16:41:06.364Z,9.50
2023-04-04T16:46:10.740Z,9.40
2023-04-04T16:51:14.011Z,9.40
2023-04-04T16:56:17.053Z,9.30
2023-04-04T17:01:23.456Z,9.40
2023-04-04T17:06:27.399Z,9.20
2023-04-04T17:11:30.348Z,9.20
2023-04-04T17:16:34.659Z,9.20
2023-04-04T17:21:43.631Z,9.10
2023-04-04T17:26:48.094Z,9.10
2023-04-04T17:31:53.220Z,9.00
2023-04-04T17:36:56.806Z,8.90
2023-04-04T17:42:01.145Z,8.80
2023-04-04T17:47:05.900Z,8.80
2023-04-04T17:52:08.854Z,8.80
2023-04-04T17:57:11.857Z,8.70
2023-04-04T18:02:16.584Z,8.60
2023-04-04T18:07:19.988Z,8.50
2023-04-04T18:12:22.879Z,8.50
2023-04-04T18:17:28.280Z,8.20
2023-04-04T18:22:34.118Z,8.10
2023-04-04T18:27:37.481Z,8.00
2023-04-04T18:32:49.770Z,7.90
2023-04-04T18:37:52.758Z,7.90
2023-04-04T18:42:55.799Z,8.10
2023-04-04T18:48:00.007Z,8.20
2023-04-04T18:53:03.045Z,8.00
2023-04-04T18:58:05.923Z,8.00
2023-04-04T19:03:11.822Z,8.00
2023-04-04T19:08:17.235Z,8.10
2023-04-04T19:13:22.226Z,8.30
2023-04-04T19:18:26.436Z,8.40
2023-04-04T19:23:29.280Z,8.60
2023-04-04T19:28:32.185Z,8.70
2023-04-04T19:33:36.994Z,8.60
2023-04-04T19:38:42.292Z,8.60
2023-04-04T19:43:50.706Z,8.30
2023-04-04T19:48:55.737Z,8.10
2023-04-04T19:54:11.717Z,7.80
2023-04-04T19:59:48.146Z,7.40
2023-04-04T20:04:52.347Z,6.90
2023-04-04T20:09:56.143Z,6.70
2023-04-04T20:15:15.332Z,6.70
2023-04-04T20:20:51.167Z,6.40
2023-04-04T20:25:55.094Z,6.30
2023-04-04T20:31:01.788Z,6.00
2023-04-04T20:36:10.798Z,6.10
2023-04-04T20:41:18.127Z,6.50
2023-04-04T20:46:21.933Z,6.70
2023-04-04T20:51:30.891Z,6.90
2023-04-04T20:56:56.361Z,6.70
2023-04-04T21:02:11.353Z,6.80
2023-04-04T21:07:40.513Z,6.40
2023-04-04T21:12:43.371Z,6.70
2023-04-04T21:17:46.346Z,6.80
2023-04-04T21:22:51.886Z,6.70
2023-04-04T21:27:56.752Z,6.90
2023-04-04T21:32:59.640Z,6.90
2023-04-04T21:38:06.158Z,7.00
2023-04-04T21:43:09.005Z,7.00
2023-04-04T21:48:11.871Z,7.00
2023-04-04T21:53:17.344Z,7.00
2023-04-04T21:58:20.237Z,6.90
2023-04-04T22:03:23.140Z,7.00
2023-04-04T22:08:27.381Z,6.80
2023-04-04T22:13:33.057Z,6.90
2023-04-04T22:18:36.408Z,6.90
2023-04-04T22:23:40.847Z,6.90
2023-04-04T22:28:45.792Z,6.90
2023-04-04T22:33:48.937Z,7.00
2023-04-04T22:38:57.165Z,6.90
2023-04-04T22:44:00.620Z,6.80
2023-04-04T22:49:07.160Z,6.80
2023-04-04T22:54:12.946Z,6.80
2023-04-04T22:59:15.895Z,6.80
2023-04-04T23:04:18.853Z,6.70
2023-04-04T23:09:23.541Z,6.80
2023-04-04T23:14:30.585Z,6.80
2023-04-04T23:19:33.470Z,6.70
2023-04-04T23:24:37.743Z,6.60
2023-04-04T23:29:41.197Z,6.70
2023-04-04T23:34:44.031Z,6.90
2023-04-04T23:39:48.214Z,7.00
2023-04-04T23:44:51.286Z,7.00
2023-04-04T23:49:54.148Z,7.00
2023-04-04T23:54:58.341Z,6.60
